Time;durP1;ratioP1;P1;durP2;ratioP2;P2;SDS_P1;SDS_P2;PMS_P1;PMS_P2;Temp;Humidity;BMP_temperature;BMP_pressure;BME280_temperature;BME280_humidity;BME280_pressure;Samples;Min_cycle;Max_cycle;Signal;HPM_P1;HPM_P2
2023/06/10 00:00:44;;;;;;;6.50;4.00;;;;;;;13.77;100.00;100992.00;4981367;28;20558;-82
2023/06/10 00:03:12;;;;;;;8.68;4.25;;;;;;;13.91;100.00;100993.41;4979219;28;20042;-81
2023/06/10 00:05:41;;;;;;;8.98;4.03;;;;;;;13.81;100.00;100987.50;4995807;28;20041;-80
2023/06/10 00:08:08;;;;;;;7.95;3.80;;;;;;;13.92;100.00;100987.16;5014169;28;20236;-82
2023/06/10 00:10:38;;;;;;;6.47;4.28;;;;;;;13.82;100.00;100986.56;4997934;28;20050;-81
2023/06/10 00:13:08;;;;;;;6.10;3.67;;;;;;;13.90;100.00;100995.19;4994090;28;20046;-83
2023/06/10 00:15:36;;;;;;;10.95;4.72;;;;;;;13.89;100.00;100993.44;4980863;28;20125;-80
2023/06/10 00:18:04;;;;;;;7.30;4.32;;;;;;;13.74;100.00;100978.81;4992885;28;20129;-80
2023/06/10 00:20:32;;;;;;;7.28;3.53;;;;;;;13.80;100.00;100997.25;4998737;28;20579;-82
2023/06/10 00:23:03;;;;;;;7.30;3.85;;;;;;;13.74;100.00;101001.84;5016570;28;20034;-80
2023/06/10 00:25:30;;;;;;;7.80;3.50;;;;;;;13.79;100.00;100990.19;4982018;28;20049;-81
2023/06/10 00:27:58;;;;;;;10.93;3.85;;;;;;;13.83;100.00;100985.66;4996951;28;20077;-82
2023/06/10 00:30:25;;;;;;;5.10;3.20;;;;;;;13.73;100.00;100986.84;4997586;28;20046;-81
2023/06/10 00:32:52;;;;;;;7.70;3.63;;;;;;;13.73;100.00;100982.41;4981736;28;20411;-81
2023/06/10 00:35:19;;;;;;;7.63;4.40;;;;;;;13.72;100.00;100988.63;4983233;28;20042;-82
2023/06/10 00:37:49;;;;;;;5.75;3.85;;;;;;;13.72;100.00;100987.75;4995791;28;20037;-82
2023/06/10 00:40:17;;;;;;;8.25;3.53;;;;;;;13.69;100.00;100991.34;5010333;28;20069;-83
2023/06/10 00:42:44;;;;;;;9.35;3.90;;;;;;;13.61;100.00;100981.84;4997911;28;20677;-82
2023/06/10 00:45:13;;;;;;;7.22;3.60;;;;;;;13.55;100.00;100982.91;4980842;28;20041;-82
2023/06/10 00:47:41;;;;;;;11.27;4.13;;;;;;;13.57;100.00;100985.53;5012171;28;20100;-82
2023/06/10 00:50:08;;;;;;;6.38;3.85;;;;;;;13.61;100.00;100982.72;4998360;28;20042;-83
2023/06/10 00:52:39;;;;;;;5.93;3.30;;;;;;;13.48;100.00;100986.66;4997104;28;20154;-82
2023/06/10 00:55:09;;;;;;;4.78;3.00;;;;;;;13.45;100.00;100984.97;4982188;28;20080;-83
2023/06/10 00:57:40;;;;;;;9.73;4.25;;;;;;;13.39;100.00;100984.25;4997981;28;20034;-83
2023/06/10 01:00:10;;;;;;;6.43;3.65;;;;;;;13.37;100.00;100980.72;5002003;28;20045;-82
2023/06/10 01:02:41;;;;;;;5.55;3.30;;;;;;;13.37;100.00;100986.03;5015593;28;20533;-81
2023/06/10 01:05:12;;;;;;;;;;;;;;;13.38;100.00;100980.72;4985437;28;20037;-82
2023/06/10 01:08:02;;;;;;;6.72;3.20;;;;;;;13.34;100.00;100987.00;4994077;28;19972;-82
2023/06/10 01:10:43;;;;;;;7.82;3.45;;;;;;;13.23;100.00;100986.44;4992478;28;20042;-81
2023/06/10 01:13:17;;;;;;;8.07;3.80;;;;;;;13.13;100.00;100998.16;4982081;28;20073;-82
2023/06/10 01:15:45;;;;;;;5.35;3.35;;;;;;;13.15;100.00;100989.25;4995780;28;20134;-82
2023/06/10 01:18:15;;;;;;;9.35;3.85;;;;;;;13.06;100.00;100994.78;4997985;28;20040;-82
2023/06/10 01:20:46;;;;;;;8.02;3.95;;;;;;;13.02;100.00;100995.75;4985143;28;20407;-80
2023/06/10 01:23:14;;;;;;;6.88;3.72;;;;;;;13.06;100.00;100993.91;4984302;28;20068;-82
2023/06/10 01:25:49;;;;;;;7.70;3.67;;;;;;;12.95;100.00;100995.06;4983643;28;20069;-83
2023/06/10 01:28:30;;;;;;;5.20;3.38;;;;;;;12.96;100.00;100994.16;4976466;28;20068;-81
2023/06/10 01:31:12;;;;;;;7.40;4.18;;;;;;;12.94;100.00;101006.56;5013124;28;20046;-82
2023/06/10 01:33:43;;;;;;;6.30;3.88;;;;;;;12.91;100.00;100996.03;4986354;28;20045;-81
2023/06/10 01:36:11;;;;;;;7.82;3.67;;;;;;;12.89;100.00;100995.22;4980151;28;20511;-80
2023/06/10 01:38:46;;;;;;;9.85;4.00;;;;;;;12.88;100.00;101000.56;4977520;28;20033;-81
2023/06/10 01:41:17;;;;;;;8.43;4.13;;;;;;;12.78;100.00;101004.31;5014524;28;20038;-81
2023/06/10 01:43:45;;;;;;;5.93;3.33;;;;;;;12.75;100.00;101004.41;5012096;28;20455;-79
2023/06/10 01:46:13;;;;;;;8.60;4.05;;;;;;;12.78;100.00;101002.56;4994011;28;20402;-81
2023/06/10 01:48:42;;;;;;;8.18;4.18;;;;;;;12.84;100.00;101001.53;4980757;28;20066;-81
2023/06/10 01:51:09;;;;;;;14.55;3.90;;;;;;;12.80;100.00;100998.09;5012075;28;20037;-82
2023/06/10 01:53:36;;;;;;;9.07;3.75;;;;;;;12.78;100.00;100999.91;5014520;28;20041;-82
2023/06/10 01:56:04;;;;;;;7.57;4.15;;;;;;;12.75;100.00;101001.75;5012301;28;20129;-79
2023/06/10 01:58:31;;;;;;;4.25;3.60;;;;;;;12.66;100.00;101002.84;4998396;28;20097;-82
2023/06/10 02:00:58;;;;;;;9.13;3.80;;;;;;;12.70;100.00;101007.19;5001372;28;20050;-80
2023/06/10 02:03:26;;;;;;;9.32;4.20;;;;;;;12.69;100.00;101000.09;5013000;28;20038;-81
2023/06/10 02:05:53;;;;;;;10.32;4.15;;;;;;;12.71;100.00;101013.34;4991908;28;20092;-81
2023/06/10 02:08:20;;;;;;;8.50;4.50;;;;;;;12.75;100.00;101013.22;5015249;28;20034;-81
2023/06/10 02:10:48;;;;;;;7.57;4.50;;;;;;;12.64;100.00;101007.31;4999269;28;20040;-81
2023/06/10 02:13:15;;;;;;;6.45;3.63;;;;;;;12.65;100.00;101009.06;5012239;28;20043;-82
2023/06/10 02:15:42;;;;;;;8.55;4.00;;;;;;;12.67;100.00;101012.53;4998377;28;20124;-80
2023/06/10 02:18:11;;;;;;;9.07;3.70;;;;;;;12.73;100.00;101020.34;4975893;28;20110;-82
2023/06/10 02:20:39;;;;;;;8.80;4.25;;;;;;;12.82;100.00;101016.59;4996551;28;20470;-81
2023/06/10 02:23:06;;;;;;;8.02;3.55;;;;;;;12.81;100.00;101015.72;5008844;28;21322;-82
2023/06/10 02:25:33;;;;;;;6.97;4.00;;;;;;;12.80;100.00;101013.13;5000629;28;20387;-82
2023/06/10 02:28:00;;;;;;;8.73;4.03;;;;;;;12.66;100.00;101022.25;4981321;28;20080;-81
2023/06/10 02:30:27;;;;;;;8.57;4.00;;;;;;;12.63;100.00;101022.34;4981343;28;20495;-82
2023/06/10 02:32:56;;;;;;;7.78;4.03;;;;;;;12.61;100.00;101023.25;4996060;28;20763;-80
2023/06/10 02:35:24;;;;;;;6.85;3.75;;;;;;;12.70;100.00;101015.13;4977123;28;20046;-80
2023/06/10 02:37:51;;;;;;;7.53;3.55;;;;;;;12.64;100.00;101010.84;4990151;28;20065;-80
2023/06/10 02:40:18;;;;;;;7.38;3.72;;;;;;;12.58;100.00;101016.25;4997955;28;20041;-82
2023/06/10 02:42:45;;;;;;;5.82;3.40;;;;;;;12.57;100.00;101025.13;4978529;28;20042;-82
2023/06/10 02:45:12;;;;;;;10.52;4.80;;;;;;;12.48;100.00;101012.09;5015438;28;20046;-82
2023/06/10 02:47:39;;;;;;;8.63;3.90;;;;;;;12.50;100.00;101010.25;5005763;28;20538;-81
2023/06/10 02:50:07;;;;;;;7.53;4.25;;;;;;;12.52;100.00;101012.88;4994814;28;20045;-83
2023/06/10 02:52:33;;;;;;;6.30;3.58;;;;;;;12.48;100.00;101016.53;4991065;28;20037;-81
2023/06/10 02:55:04;;;;;;;8.93;4.00;;;;;;;12.50;100.00;101014.69;4982074;28;20470;-81
2023/06/10 02:57:30;;;;;;;7.43;3.88;;;;;;;12.47;100.00;101015.66;4994937;28;20385;-83
2023/06/10 02:59:58;;;;;;;7.25;3.88;;;;;;;12.52;100.00;101018.19;4992085;28;20054;-80
2023/06/10 03:02:28;;;;;;;7.90;3.85;;;;;;;12.54;100.00;101019.03;5006526;28;20125;-82
2023/06/10 03:04:55;;;;;;;6.88;3.83;;;;;;;12.54;100.00;101013.75;4973279;28;20056;-82
2023/06/10 03:07:27;;;;;;;7.22;3.72;;;;;;;12.51;100.00;101012.00;4977494;28;20575;-81
2023/06/10 03:09:54;;;;;;;7.97;3.95;;;;;;;12.49;100.00;101011.19;5006223;28;20046;-80
2023/06/10 03:12:20;;;;;;;7.88;4.25;;;;;;;12.57;100.00;101011.00;5008337;28;20079;-82
2023/06/10 03:14:47;;;;;;;9.27;4.45;;;;;;;12.54;100.00;101009.31;4990755;28;20038;-81
2023/06/10 03:17:14;;;;;;;8.38;3.60;;;;;;;12.54;100.00;101013.75;4990649;28;20034;-82
2023/06/10 03:19:40;;;;;;;6.65;4.63;;;;;;;12.41;100.00;101023.72;4992190;28;20061;-82
2023/06/10 03:22:10;;;;;;;7.40;4.28;;;;;;;12.40;100.00;101017.56;5010606;28;20653;-82
2023/06/10 03:24:39;;;;;;;11.57;4.25;;;;;;;12.51;100.00;101016.44;5012780;28;20080;-82
2023/06/10 03:27:07;;;;;;;8.48;3.88;;;;;;;12.51;100.00;101019.09;4980972;28;20475;-83
2023/06/10 03:29:35;;;;;;;10.80;3.50;;;;;;;12.53;100.00;101020.81;4997328;28;20088;-81
2023/06/10 03:32:02;;;;;;;6.63;3.55;;;;;;;12.48;100.00;101019.16;5014065;28;20049;-82
2023/06/10 03:34:29;;;;;;;9.93;4.07;;;;;;;12.56;100.00;101022.53;4985914;28;20136;-82
2023/06/10 03:37:00;;;;;;;7.82;3.70;;;;;;;12.59;100.00;101015.34;5014901;28;20069;-81
2023/06/10 03:39:28;;;;;;;7.50;3.75;;;;;;;12.63;100.00;101026.78;5015621;28;20038;-82
2023/06/10 03:41:57;;;;;;;9.25;4.32;;;;;;;12.58;100.00;101021.56;4995207;28;20038;-81
2023/06/10 03:44:25;;;;;;;6.95;3.65;;;;;;;12.62;100.00;101023.25;5013672;28;20053;-79
2023/06/10 03:46:53;;;;;;;7.78;3.78;;;;;;;12.63;100.00;101032.06;4987679;28;20042;-81
2023/06/10 03:49:19;;;;;;;5.15;3.47;;;;;;;12.61;100.00;101025.91;4994287;28;20181;-81
2023/06/10 03:51:46;;;;;;;7.93;4.35;;;;;;;12.68;100.00;101031.03;4987374;28;20030;-82
2023/06/10 03:54:15;;;;;;;6.53;4.35;;;;;;;12.72;100.00;101025.69;4986861;28;20065;-83
2023/06/10 03:56:50;;;;;;;12.88;4.30;;;;;;;12.80;100.00;101034.34;5009279;28;20038;-82
2023/06/10 03:59:26;;;;;;;8.18;3.90;;;;;;;12.85;100.00;101028.00;4983288;28;20058;-81
2023/06/10 04:02:02;;;;;;;8.43;4.38;;;;;;;12.93;100.00;101035.78;5008612;28;20046;-81
2023/06/10 04:04:37;;;;;;;6.63;3.90;;;;;;;12.92;100.00;101040.19;4984874;28;20109;-82
2023/06/10 04:07:08;;;;;;;7.40;3.83;;;;;;;12.92;100.00;101039.34;4983035;28;20410;-80
2023/06/10 04:09:36;;;;;;;10.05;3.92;;;;;;;12.99;100.00;101037.41;4996217;28;20117;-80
2023/06/10 04:12:05;;;;;;;6.97;4.07;;;;;;;13.06;100.00;101045.19;4976078;28;20130;-82
2023/06/10 04:14:32;;;;;;;7.75;3.92;;;;;;;13.15;100.00;101050.25;4980176;28;20113;-81
2023/06/10 04:16:59;;;;;;;6.45;3.58;;;;;;;13.22;100.00;101048.38;4994862;28;20046;-81
2023/06/10 04:19:26;;;;;;;10.70;4.53;;;;;;;13.14;100.00;101052.97;4992266;28;20385;-81
2023/06/10 04:21:52;;;;;;;10.45;4.25;;;;;;;13.36;100.00;101040.91;5007831;28;20045;-81
2023/06/10 04:24:19;;;;;;;11.27;4.45;;;;;;;13.42;100.00;101046.06;4990060;28;20048;-82
2023/06/10 04:26:46;;;;;;;6.57;3.55;;;;;;;13.40;100.00;101060.28;4997660;28;20128;-82
2023/06/10 04:29:18;;;;;;;9.32;3.53;;;;;;;13.61;100.00;101050.88;4975108;28;20046;-81
2023/06/10 04:31:47;;;;;;;7.07;3.78;;;;;;;13.70;100.00;101048.84;4991831;28;20052;-82
2023/06/10 04:34:15;;;;;;;8.63;4.00;;;;;;;13.77;100.00;101050.41;5010011;28;20049;-81
2023/06/10 04:36:42;;;;;;;6.78;3.95;;;;;;;13.79;100.00;101053.94;4978164;28;20120;-82
2023/06/10 04:39:09;;;;;;;7.82;4.00;;;;;;;13.87;100.00;101056.34;4991743;28;20034;-80
2023/06/10 04:41:35;;;;;;;8.73;4.25;;;;;;;14.03;100.00;101051.47;5006043;28;20038;-81
2023/06/10 04:44:02;;;;;;;12.27;4.90;;;;;;;14.09;100.00;101054.84;4992145;28;20042;-82
2023/06/10 04:46:31;;;;;;;6.80;3.63;;;;;;;14.13;100.00;101049.47;4997926;28;20503;-80
2023/06/10 04:48:58;;;;;;;8.32;3.88;;;;;;;14.17;100.00;101046.66;4990087;28;20518;-82
2023/06/10 04:51:24;;;;;;;11.20;4.63;;;;;;;14.36;100.00;101049.63;5008594;28;20128;-81
2023/06/10 04:53:52;;;;;;;8.63;3.58;;;;;;;14.39;100.00;101049.56;5010366;28;20033;-81
2023/06/10 04:56:20;;;;;;;6.38;3.72;;;;;;;14.47;100.00;101052.88;4996571;28;20055;-81
2023/06/10 04:58:46;;;;;;;8.82;3.85;;;;;;;14.57;100.00;101061.44;5000796;28;20554;-82
2023/06/10 05:01:13;;;;;;;7.43;3.28;;;;;;;14.79;100.00;101048.34;5018227;28;20037;-81
2023/06/10 05:03:40;;;;;;;7.88;4.32;;;;;;;14.96;100.00;101053.13;4994451;28;20144;-81
2023/06/10 05:06:07;;;;;;;9.10;3.92;;;;;;;15.00;100.00;101055.66;4980246;28;20695;-82
2023/06/10 05:08:33;;;;;;;7.20;3.70;;;;;;;15.11;100.00;101056.16;4996555;28;20065;-80
2023/06/10 05:11:00;;;;;;;6.50;3.58;;;;;;;15.31;100.00;101051.97;5013692;28;20041;-80
2023/06/10 05:13:27;;;;;;;7.00;3.45;;;;;;;15.47;100.00;101055.88;4975957;28;20038;-81
2023/06/10 05:15:56;;;;;;;4.85;3.13;;;;;;;15.52;100.00;101055.69;4982747;28;20042;-82
2023/06/10 05:18:23;;;;;;;9.52;3.97;;;;;;;15.66;100.00;101057.00;4986674;28;20057;-82
2023/06/10 05:20:50;;;;;;;6.28;3.28;;;;;;;15.61;100.00;101064.25;5011651;28;20037;-80
2023/06/10 05:23:18;;;;;;;6.45;4.05;;;;;;;15.74;100.00;101064.72;4986588;28;20069;-80
2023/06/10 05:25:44;;;;;;;6.35;3.90;;;;;;;15.82;100.00;101072.44;4997205;28;20507;-82
2023/06/10 05:28:11;;;;;;;7.35;3.95;;;;;;;15.91;100.00;101072.09;5012985;28;20128;-83
2023/06/10 05:30:41;;;;;;;6.97;3.40;;;;;;;16.04;100.00;101082.25;4975765;28;20039;-82
2023/06/10 05:33:08;;;;;;;6.32;3.78;;;;;;;16.12;100.00;101075.78;4981820;28;20133;-81
2023/06/10 05:35:34;;;;;;;6.00;3.40;;;;;;;16.18;100.00;101075.56;4994670;28;20048;-81
2023/06/10 05:38:02;;;;;;;7.20;4.40;;;;;;;16.43;96.83;101080.84;4977390;28;20077;-81
2023/06/10 05:40:29;;;;;;;6.72;3.92;;;;;;;16.86;93.61;101072.94;4992840;28;20631;-81
2023/06/10 05:42:56;;;;;;;6.53;4.07;;;;;;;17.00;91.54;101075.06;4986118;28;20045;-81
2023/06/10 05:45:23;;;;;;;7.13;3.88;;;;;;;17.39;88.76;101079.66;5010460;28;20133;-82
2023/06/10 05:47:50;;;;;;;5.60;3.45;;;;;;;17.56;87.19;101086.97;4993928;28;20577;-81
2023/06/10 05:50:17;;;;;;;6.15;3.88;;;;;;;17.64;86.66;101084.84;4989947;28;20034;-83
2023/06/10 05:52:44;;;;;;;6.32;3.42;;;;;;;17.52;87.55;101083.56;5010934;28;20045;-82
2023/06/10 05:55:10;;;;;;;6.82;4.03;;;;;;;17.55;86.42;101083.44;4982793;28;20088;-83
2023/06/10 05:57:37;;;;;;;6.20;3.60;;;;;;;17.48;87.52;101084.63;4996795;28;20088;-82
2023/06/10 06:00:05;;;;;;;7.28;4.03;;;;;;;17.43;87.05;101083.97;4972868;28;20047;-80
2023/06/10 06:02:32;;;;;;;7.32;3.92;;;;;;;17.21;87.32;101083.97;4973290;28;20221;-82
2023/06/10 06:04:59;;;;;;;6.68;3.65;;;;;;;16.95;90.46;101084.16;4992127;28;20046;-83
2023/06/10 06:07:25;;;;;;;10.18;4.55;;;;;;;16.92;91.40;101085.16;4991443;28;20042;-82
2023/06/10 06:09:52;;;;;;;8.30;4.03;;;;;;;16.78;93.04;101085.72;5009536;28;20044;-81
2023/06/10 06:12:19;;;;;;;7.97;4.18;;;;;;;16.75;92.07;101085.84;4992376;28;20708;-83
2023/06/10 06:14:46;;;;;;;7.88;4.10;;;;;;;16.79;90.66;101089.25;4981755;28;20491;-82
2023/06/10 06:17:12;;;;;;;7.82;4.40;;;;;;;16.79;89.53;101089.25;4996655;28;20045;-83
2023/06/10 06:19:39;;;;;;;7.80;4.55;;;;;;;16.80;90.04;101088.31;5007217;28;20100;-83
2023/06/10 06:22:06;;;;;;;9.57;4.30;;;;;;;16.78;90.58;101101.72;4980755;28;20050;-82
2023/06/10 06:24:32;;;;;;;22.52;6.97;;;;;;;16.97;92.46;101092.97;4982935;28;20044;-82
2023/06/10 06:26:59;;;;;;;11.93;5.25;;;;;;;17.40;90.72;101095.66;4980545;28;20673;-83
2023/06/10 06:29:26;;;;;;;8.52;4.05;;;;;;;18.01;85.34;101089.50;4983900;28;20124;-82
2023/06/10 06:31:53;;;;;;;7.93;4.60;;;;;;;18.29;81.07;101098.00;5021869;28;20048;-83
2023/06/10 06:34:20;;;;;;;8.45;3.80;;;;;;;18.80;78.36;101093.00;4994262;28;20049;-82
2023/06/10 06:36:46;;;;;;;6.00;4.03;;;;;;;19.28;74.15;101097.78;4992165;28;20125;-80
2023/06/10 06:39:14;;;;;;;7.22;4.28;;;;;;;19.74;71.92;101105.34;4990231;28;20048;-81
2023/06/10 06:41:40;;;;;;;7.57;3.90;;;;;;;19.89;69.60;101109.91;4996680;28;20196;-81
2023/06/10 06:44:07;;;;;;;7.78;4.10;;;;;;;19.96;70.02;101108.66;4978428;28;20128;-81
2023/06/10 06:46:34;;;;;;;9.02;4.00;;;;;;;20.18;68.68;101105.72;4994329;28;20069;-82
2023/06/10 06:49:01;;;;;;;7.82;3.65;;;;;;;20.27;69.28;101113.28;4982105;28;20431;-81
2023/06/10 06:51:29;;;;;;;9.23;4.43;;;;;;;20.16;68.33;101113.81;5017685;28;20127;-81
2023/06/10 06:53:58;;;;;;;6.18;4.55;;;;;;;20.13;67.44;101116.69;5011816;28;20072;-80
2023/06/10 06:56:27;;;;;;;6.93;4.70;;;;;;;19.78;68.05;101113.16;4995710;28;20046;-82
2023/06/10 06:58:53;;;;;;;8.13;5.07;;;;;;;19.64;68.32;101129.06;4993934;28;20482;-82
2023/06/10 07:01:23;;;;;;;8.88;5.32;;;;;;;19.80;70.16;101116.63;4998970;28;20056;-81
2023/06/10 07:03:50;;;;;;;6.57;4.50;;;;;;;19.77;71.70;101124.84;4996192;28;20049;-82
2023/06/10 07:06:17;;;;;;;8.45;4.35;;;;;;;20.00;70.47;101125.44;5003824;28;20045;-83
2023/06/10 07:08:44;;;;;;;7.20;4.45;;;;;;;20.04;67.83;101129.72;4977996;28;20048;-82
2023/06/10 07:11:10;;;;;;;8.70;4.93;;;;;;;20.14;67.07;101130.97;4996539;28;20056;-82
2023/06/10 07:13:37;;;;;;;9.77;4.93;;;;;;;20.44;66.67;101133.88;5012030;28;20065;-81
2023/06/10 07:16:05;;;;;;;9.40;4.55;;;;;;;20.54;65.56;101129.72;4977246;28;20105;-81
2023/06/10 07:18:32;;;;;;;8.00;4.70;;;;;;;20.46;65.95;101137.31;4990648;28;20050;-82
2023/06/10 07:20:59;;;;;;;6.63;4.90;;;;;;;20.49;64.57;101138.00;4994585;28;20035;-81
2023/06/10 07:23:26;;;;;;;6.97;4.30;;;;;;;20.70;65.17;101136.00;4988271;28;20415;-83
2023/06/10 07:25:53;;;;;;;8.57;5.30;;;;;;;20.70;63.41;101138.69;5014476;28;20082;-81
2023/06/10 07:28:20;;;;;;;7.38;4.72;;;;;;;21.20;62.35;101137.66;4994347;28;20129;-83
2023/06/10 07:30:46;;;;;;;7.75;4.90;;;;;;;21.14;61.07;101145.19;4974304;28;20080;-83
2023/06/10 07:33:13;;;;;;;5.50;4.13;;;;;;;21.67;61.48;101144.81;4977409;28;20509;-81
2023/06/10 07:35:42;;;;;;;9.07;5.18;;;;;;;21.90;58.94;101152.38;4994126;28;20092;-83
2023/06/10 07:38:09;;;;;;;11.30;5.32;;;;;;;22.28;58.58;101148.34;4992472;28;20586;-81
2023/06/10 07:40:36;;;;;;;5.25;4.68;;;;;;;22.62;57.79;101147.13;5013122;28;21222;-81
2023/06/10 07:43:03;;;;;;;9.25;5.22;;;;;;;22.67;55.61;101153.06;4995311;28;20066;-79
2023/06/10 07:45:30;;;;;;;9.25;4.88;;;;;;;22.78;54.04;101153.25;4991527;28;20073;-80
2023/06/10 07:47:56;;;;;;;10.07;5.60;;;;;;;22.91;54.34;101142.59;4980810;28;20041;-80
2023/06/10 07:50:23;;;;;;;8.65;6.13;;;;;;;22.31;53.92;101149.03;5007758;28;20104;-79
2023/06/10 07:52:50;;;;;;;9.13;5.55;;;;;;;22.41;55.89;101150.19;5008759;28;20088;-81
2023/06/10 07:55:19;;;;;;;5.82;4.53;;;;;;;22.10;56.45;101153.88;5010777;28;20039;-81
2023/06/10 07:57:46;;;;;;;8.30;5.35;;;;;;;21.85;57.56;101151.78;4976760;28;20038;-80
2023/06/10 08:00:15;;;;;;;7.65;5.60;;;;;;;21.73;59.00;101159.72;4992709;28;20064;-82
2023/06/10 08:02:44;;;;;;;6.28;5.68;;;;;;;21.53;59.63;101153.69;4995466;28;20527;-80
2023/06/10 08:05:13;;;;;;;7.32;4.82;;;;;;;21.53;59.67;101156.38;5007542;28;20061;-82
2023/06/10 08:07:41;;;;;;;6.75;4.50;;;;;;;21.45;60.06;101164.03;4989257;28;20042;-84
2023/06/10 08:10:12;;;;;;;45.47;9.10;;;;;;;21.43;60.43;101160.53;4979147;28;20038;-84
2023/06/10 08:12:38;;;;;;;9.15;5.35;;;;;;;21.62;59.17;101163.06;5012092;28;20045;-83
2023/06/10 08:15:06;;;;;;;8.55;5.70;;;;;;;21.49;58.65;101159.34;4991465;28;20050;-82
2023/06/10 08:17:33;;;;;;;10.13;6.38;;;;;;;21.42;60.44;101164.19;4980922;28;20053;-83
2023/06/10 08:20:00;;;;;;;11.85;5.78;;;;;;;21.39;61.33;101159.00;5007587;28;20108;-83
2023/06/10 08:22:30;;;;;;;7.13;5.53;;;;;;;21.09;61.51;101169.63;4988376;28;20495;-82
2023/06/10 08:24:57;;;;;;;10.32;5.68;;;;;;;21.14;61.07;101164.00;5004558;28;20042;-82
2023/06/10 08:27:24;;;;;;;8.32;5.07;;;;;;;20.96;62.85;101168.59;4978335;28;20137;-83
2023/06/10 08:29:51;;;;;;;8.43;5.43;;;;;;;20.91;63.25;101170.66;4990222;28;20026;-81
2023/06/10 08:32:18;;;;;;;7.57;5.38;;;;;;;20.89;64.27;101176.13;5009126;28;20400;-83
2023/06/10 08:34:45;;;;;;;6.50;5.13;;;;;;;20.65;63.73;101180.13;5000947;28;20065;-83
2023/06/10 08:37:12;;;;;;;5.13;4.47;;;;;;;20.74;65.26;101174.28;4984254;28;20558;-84
2023/06/10 08:39:38;;;;;;;16.25;5.93;;;;;;;20.63;65.28;101174.88;4973587;28;20048;-83
2023/06/10 08:42:16;;;;;;;9.50;5.97;;;;;;;20.51;64.32;101175.50;4972680;28;20121;-83
2023/06/10 08:44:46;;;;;;;10.52;5.20;;;;;;;20.80;63.75;101176.63;4989227;28;20479;-83
2023/06/10 08:47:18;;;;;;;8.18;5.30;;;;;;;20.91;63.49;101176.91;5000822;28;20149;-82
2023/06/10 08:49:46;;;;;;;9.13;5.68;;;;;;;20.90;62.91;101183.22;4989587;28;20038;-83
2023/06/10 08:52:17;;;;;;;9.63;5.40;;;;;;;20.99;64.03;101177.34;5002477;28;20461;-83
2023/06/10 08:54:59;;;;;;;7.05;5.85;;;;;;;21.41;61.45;101175.91;4987021;28;20092;-83
2023/06/10 08:57:26;;;;;;;14.88;6.28;;;;;;;21.85;59.05;101183.19;4984808;28;20134;-82
2023/06/10 08:59:55;;;;;;;6.07;4.90;;;;;;;22.33;59.54;101173.16;5001561;28;20038;-80
2023/06/10 09:02:23;;;;;;;8.18;5.20;;;;;;;22.49;56.28;101171.25;5002420;28;20576;-81
2023/06/10 09:04:51;;;;;;;8.35;6.18;;;;;;;22.46;56.95;101175.03;4987044;28;20495;-81
2023/06/10 09:07:18;;;;;;;82.28;15.70;;;;;;;22.55;56.84;101173.56;5021393;28;20127;-82
2023/06/10 09:09:45;;;;;;;7.80;5.00;;;;;;;22.59;56.37;101171.53;4974056;28;20071;-82
2023/06/10 09:12:15;;;;;;;8.75;5.63;;;;;;;22.65;57.50;101165.78;4992804;28;20138;-81
2023/06/10 09:14:42;;;;;;;7.30;5.53;;;;;;;22.34;58.30;101178.44;5010004;28;20042;-81
2023/06/10 09:17:09;;;;;;;9.80;5.68;;;;;;;22.67;57.88;101178.19;5013156;28;20124;-82
2023/06/10 09:19:40;;;;;;;8.13;5.35;;;;;;;22.85;57.34;101175.31;4986927;28;20042;-81
2023/06/10 09:22:07;;;;;;;8.88;6.43;;;;;;;22.75;56.48;101177.69;4976074;28;20137;-81
2023/06/10 09:24:34;;;;;;;7.72;5.82;;;;;;;22.77;56.13;101176.63;4977636;28;20484;-79
2023/06/10 09:27:03;;;;;;;12.38;6.22;;;;;;;22.80;56.87;101175.59;4974663;28;20316;-80
2023/06/10 09:29:30;;;;;;;7.60;6.75;;;;;;;23.10;54.27;101177.31;4985711;28;20124;-81
2023/06/10 09:31:57;;;;;;;7.63;6.50;;;;;;;23.42;53.67;101165.28;4971366;28;20078;-82
2023/06/10 09:34:28;;;;;;;7.63;6.20;;;;;;;24.00;52.82;101174.03;4993251;28;20074;-79
2023/06/10 09:36:55;;;;;;;7.00;6.30;;;;;;;23.92;51.14;101169.16;4995253;28;20048;-81
2023/06/10 09:39:22;;;;;;;7.40;6.28;;;;;;;24.01;51.42;101171.22;4995245;28;20100;-81
2023/06/10 09:41:49;;;;;;;10.20;6.70;;;;;;;24.27;50.86;101166.72;4983353;28;20053;-80
2023/06/10 09:44:18;;;;;;;7.63;6.28;;;;;;;24.62;49.36;101158.84;5004161;28;20137;-81
2023/06/10 09:46:46;;;;;;;7.53;6.10;;;;;;;25.18;50.44;101156.63;4994938;28;20044;-81
2023/06/10 09:49:13;;;;;;;7.70;6.07;;;;;;;24.89;48.69;101157.88;4999143;28;20046;-81
2023/06/10 09:51:51;;;;;;;8.50;6.60;;;;;;;25.15;49.31;101151.44;4983135;28;20069;-80
2023/06/10 09:54:18;;;;;;;7.22;5.65;;;;;;;25.61;48.41;101149.84;4996826;28;20034;-80
2023/06/10 09:56:51;;;;;;;8.57;6.55;;;;;;;25.66;46.34;101153.94;4984303;28;20617;-80
2023/06/10 09:59:31;;;;;;;6.63;5.90;;;;;;;26.21;45.42;101151.53;4992911;28;20046;-81
2023/06/10 10:02:00;;;;;;;7.07;5.55;;;;;;;26.43;45.01;101156.19;5014663;28;20061;-80
2023/06/10 10:04:28;;;;;;;8.05;6.78;;;;;;;26.69;43.37;101159.53;5001806;28;20042;-81
2023/06/10 10:06:55;;;;;;;7.32;6.22;;;;;;;26.83;43.00;101148.44;5008955;28;20054;-80
2023/06/10 10:09:22;;;;;;;7.68;5.75;;;;;;;26.76;42.78;101147.19;4999852;28;20113;-81
2023/06/10 10:11:49;;;;;;;7.28;5.25;;;;;;;27.24;43.60;101145.03;4987977;28;20049;-81
2023/06/10 10:14:16;;;;;;;112.63;20.33;;;;;;;27.54;42.18;101140.78;4998715;28;20372;-80
2023/06/10 10:16:44;;;;;;;16.42;6.97;;;;;;;27.19;41.86;101142.72;4984963;28;20112;-80
2023/06/10 10:19:17;;;;;;;9.25;6.25;;;;;;;27.34;42.16;101135.19;5003352;28;20175;-80
2023/06/10 10:21:50;;;;;;;8.75;6.68;;;;;;;27.01;42.63;101138.81;5001369;28;20435;-80
2023/06/10 10:24:27;;;;;;;;;;;;;;;27.54;40.90;101138.94;4988003;28;20050;-80
2023/06/10 10:26:55;;;;;;;6.88;5.93;;;;;;;27.43;40.92;101133.56;4985125;28;19929;-80
2023/06/10 10:29:38;;;;;;;6.47;5.60;;;;;;;28.00;40.82;101140.50;4981639;28;20310;-83
2023/06/10 10:32:35;;;;;;;6.80;5.18;;;;;;;27.97;38.87;101141.59;5017957;28;20053;-80
2023/06/10 10:35:18;;;;;;;6.88;5.57;;;;;;;27.67;41.00;101136.94;5014060;28;20050;-81
2023/06/10 10:37:46;;;;;;;7.43;5.87;;;;;;;28.13;40.60;101141.13;4978316;28;20519;-81
2023/06/10 10:40:13;;;;;;;7.55;6.40;;;;;;;27.38;39.79;101136.63;4987691;28;20300;-81
2023/06/10 10:42:40;;;;;;;7.38;6.65;;;;;;;27.85;40.15;101139.09;4992523;28;20064;-81
2023/06/10 10:45:08;;;;;;;6.45;5.57;;;;;;;27.85;40.32;101133.66;4999649;28;20065;-81
2023/06/10 10:47:37;;;;;;;7.43;6.72;;;;;;;28.12;39.42;101135.84;4973007;28;20134;-81
2023/06/10 10:50:14;;;;;;;7.55;5.70;;;;;;;28.34;39.31;101124.00;5009271;28;20484;-81
2023/06/10 10:52:56;;;;;;;7.25;6.55;;;;;;;28.52;37.75;101128.66;5008028;28;20042;-81
2023/06/10 10:55:24;;;;;;;6.18;5.57;;;;;;;28.86;37.38;101115.63;5007262;28;20041;-80
2023/06/10 10:57:56;;;;;;;6.22;5.60;;;;;;;29.07;36.86;101126.44;4990527;28;20038;-81
2023/06/10 11:00:29;;;;;;;8.52;6.07;;;;;;;28.42;37.29;101127.75;5007207;28;20153;-81
2023/06/10 11:03:16;;;;;;;7.15;6.38;;;;;;;28.96;37.96;101123.00;5007430;28;20545;-80
2023/06/10 11:05:49;;;;;;;6.70;6.00;;;;;;;29.34;37.79;101120.31;4999914;28;20050;-81
2023/06/10 11:08:32;;;;;;;38.63;9.10;;;;;;;29.50;34.98;101122.53;5009318;28;20046;-81
2023/06/10 11:11:02;;;;;;;7.07;6.33;;;;;;;29.35;33.69;101123.94;5027647;28;20065;-78
2023/06/10 11:13:30;;;;;;;7.70;5.68;;;;;;;28.96;34.31;101117.53;5005655;28;20029;-79
2023/06/10 11:15:58;;;;;;;7.57;5.95;;;;;;;28.66;34.24;101129.28;4982559;28;20054;-80
2023/06/10 11:18:27;;;;;;;6.10;5.50;;;;;;;29.21;34.52;101118.88;5002370;28;20042;-80
2023/06/10 11:20:58;;;;;;;7.13;6.43;;;;;;;28.53;34.69;101114.06;5008356;28;20029;-82
2023/06/10 11:23:29;;;;;;;81.03;16.75;;;;;;;28.86;34.98;101121.06;4981694;28;20080;-82
2023/06/10 11:26:34;;;;;;;8.55;6.30;;;;;;;29.02;35.76;101117.00;5021177;28;20516;-81
2023/06/10 11:29:08;;;;;;;;;;;;;;;29.42;32.94;101114.16;4999662;28;20077;-79